createdAt,value
2019-05-03T00:00:31.925Z,1013.85
2019-05-03T00:01:32.429Z,1013.86
2019-05-03T00:02:32.305Z,1013.92
2019-05-03T00:03:32.018Z,1013.92
2019-05-03T00:04:32.137Z,1013.96
2019-05-03T00:05:32.484Z,1014.01
2019-05-03T00:06:32.116Z,1013.97
2019-05-03T00:07:31.743Z,1013.98
2019-05-03T00:08:33.226Z,1014.01
2019-05-03T00:09:31.991Z,1014.02
2019-05-03T00:10:32.233Z,1013.99
2019-05-03T00:11:32.688Z,1014.01
2019-05-03T00:12:32.729Z,1014.02
2019-05-03T00:13:32.492Z,1014.03
2019-05-03T00:14:32.487Z,1014.07
2019-05-03T00:15:32.319Z,1014.06
2019-05-03T00:16:32.580Z,1014.09
2019-05-03T00:17:32.475Z,1014.08
2019-05-03T00:18:32.771Z,1014.07
2019-05-03T00:19:32.723Z,1014.07
2019-05-03T00:20:32.623Z,1014.08
2019-05-03T00:21:32.714Z,1014.14
2019-05-03T00:22:32.494Z,1014.17
2019-05-03T00:23:32.463Z,1014.23
2019-05-03T00:24:32.122Z,1014.27
2019-05-03T00:25:32.655Z,1014.25
2019-05-03T00:26:31.886Z,1014.26
2019-05-03T00:27:32.264Z,1014.29
2019-05-03T00:28:32.539Z,1014.30
2019-05-03T00:29:32.526Z,1014.33
2019-05-03T00:30:32.096Z,1014.38
2019-05-03T00:31:31.947Z,1014.37
2019-05-03T00:32:32.069Z,1014.41
2019-05-03T00:33:31.908Z,1014.43
2019-05-03T00:34:32.638Z,1014.48
2019-05-03T00:35:31.978Z,1014.47
2019-05-03T00:36:32.840Z,1014.47
2019-05-03T00:37:32.720Z,1014.46
2019-05-03T00:38:32.501Z,1014.39
2019-05-03T00:39:32.465Z,1014.33
2019-05-03T00:40:32.737Z,1014.28
2019-05-03T00:41:32.092Z,1014.22
2019-05-03T00:42:31.841Z,1014.22
2019-05-03T00:43:31.890Z,1014.19
2019-05-03T00:44:31.829Z,1014.20
2019-05-03T00:45:31.812Z,1014.19
2019-05-03T00:46:32.843Z,1014.19
2019-05-03T00:47:32.881Z,1014.20
2019-05-03T00:48:32.637Z,1014.21
2019-05-03T00:49:32.137Z,1014.17
2019-05-03T00:50:32.177Z,1014.20
2019-05-03T00:51:31.920Z,1014.20
2019-05-03T00:52:32.949Z,1014.18
2019-05-03T00:53:31.952Z,1014.13
2019-05-03T00:54:31.964Z,1014.10
2019-05-03T00:55:32.781Z,1014.09
2019-05-03T00:56:32.175Z,1014.11
2019-05-03T00:57:32.442Z,1014.14
2019-05-03T00:58:33.041Z,1014.14
2019-05-03T00:59:32.639Z,1014.19
2019-05-03T01:00:32.350Z,1014.20
2019-05-03T01:01:32.182Z,1014.27
2019-05-03T01:02:32.102Z,1014.28
2019-05-03T01:03:32.540Z,1014.33
2019-05-03T01:04:33.145Z,1014.37
2019-05-03T01:05:33.112Z,1014.41
2019-05-03T01:06:32.170Z,1014.43
2019-05-03T01:07:32.185Z,1014.46
2019-05-03T01:08:32.664Z,1014.51
2019-05-03T01:09:32.217Z,1014.57
2019-05-03T01:10:33.248Z,1014.57
2019-05-03T01:11:32.484Z,1014.65
2019-05-03T01:12:32.566Z,1014.63
2019-05-03T01:13:32.286Z,1014.63
2019-05-03T01:14:32.312Z,1014.69
2019-05-03T01:15:32.325Z,1014.71
2019-05-03T01:16:33.350Z,1014.71
2019-05-03T01:17:32.356Z,1014.71
2019-05-03T01:18:32.537Z,1014.73
2019-05-03T01:19:32.387Z,1014.76
2019-05-03T01:20:32.407Z,1014.74
2019-05-03T01:21:32.427Z,1014.75
2019-05-03T01:22:33.452Z,1014.75
2019-05-03T01:23:32.640Z,1014.71
2019-05-03T01:24:32.472Z,1014.70
2019-05-03T01:25:35.251Z,1014.69
2019-05-03T01:26:32.509Z,1014.68
2019-05-03T01:27:32.792Z,1014.62
2019-05-03T01:28:33.552Z,1014.60
2019-05-03T01:29:32.559Z,1014.52
2019-05-03T01:30:32.576Z,1014.49
2019-05-03T01:31:32.594Z,1014.47
2019-05-03T01:32:33.031Z,1014.47
2019-05-03T01:33:32.633Z,1014.50
2019-05-03T01:34:33.656Z,1014.55
2019-05-03T01:35:32.662Z,1014.57
2019-05-03T01:36:32.677Z,1014.60
2019-05-03T01:37:32.696Z,1014.62
2019-05-03T01:38:32.712Z,1014.64
2019-05-03T01:39:32.731Z,1014.66
2019-05-03T01:40:33.756Z,1014.72
2019-05-03T01:41:32.764Z,1014.72
2019-05-03T01:42:32.781Z,1014.81
2019-05-03T01:43:32.801Z,1014.78
2019-05-03T01:44:32.814Z,1014.75
2019-05-03T01:45:32.832Z,1014.75
2019-05-03T01:46:33.858Z,1014.72
2019-05-03T01:47:32.863Z,1014.73
2019-05-03T01:48:32.882Z,1014.72
2019-05-03T01:49:32.901Z,1014.70
2019-05-03T01:50:32.916Z,1014.73
2019-05-03T01:51:32.935Z,1014.75
2019-05-03T01:52:33.960Z,1014.79
2019-05-03T01:53:32.965Z,1014.82
2019-05-03T01:54:32.981Z,1014.90
2019-05-03T01:55:44.026Z,1014.91
2019-05-03T01:56:33.018Z,1014.94
2019-05-03T01:57:33.036Z,1014.95
2019-05-03T01:58:34.061Z,1014.93
2019-05-03T01:59:33.066Z,1014.96
2019-05-03T02:00:33.086Z,1014.97
2019-05-03T02:01:33.103Z,1014.96
2019-05-03T02:02:33.120Z,1014.96
2019-05-03T02:03:33.138Z,1014.97
2019-05-03T02:04:34.163Z,1014.97
2019-05-03T02:05:33.173Z,1015.02
2019-05-03T02:06:33.185Z,1014.98
2019-05-03T02:07:33.204Z,1014.94
2019-05-03T02:08:33.220Z,1014.91
2019-05-03T02:09:33.238Z,1014.87
2019-05-03T02:10:34.265Z,1014.86
2019-05-03T02:11:33.274Z,1014.82
2019-05-03T02:12:33.812Z,1014.80
2019-05-03T02:13:34.025Z,1014.73
2019-05-03T02:14:33.441Z,1014.72
2019-05-03T02:15:33.336Z,1014.77
2019-05-03T02:16:34.368Z,1014.80
2019-05-03T02:17:33.376Z,1014.80
2019-05-03T02:18:33.388Z,1014.83
2019-05-03T02:19:33.405Z,1014.81
2019-05-03T02:20:33.423Z,1014.80
2019-05-03T02:21:33.442Z,1014.81
2019-05-03T02:22:34.468Z,1014.80
2019-05-03T02:23:33.476Z,1014.82
2019-05-03T02:24:33.499Z,1014.87
2019-05-03T02:25:33.543Z,1014.89
2019-05-03T02:26:33.535Z,1014.86
2019-05-03T02:27:33.563Z,1014.90
2019-05-03T02:28:34.600Z,1014.93
2019-05-03T02:29:33.577Z,1014.92
2019-05-03T02:30:33.597Z,1014.89
2019-05-03T02:31:33.612Z,1014.92
2019-05-03T02:32:33.633Z,1014.91
2019-05-03T02:33:33.652Z,1014.87
2019-05-03T02:34:34.674Z,1014.87
2019-05-03T02:35:33.684Z,1014.88
2019-05-03T02:36:33.981Z,1014.85
2019-05-03T02:37:33.718Z,1014.84
2019-05-03T02:38:34.040Z,1014.85
2019-05-03T02:39:33.747Z,1014.87
2019-05-03T02:40:34.782Z,1014.89
2019-05-03T02:41:33.784Z,1014.92
2019-05-03T02:42:35.632Z,1014.97
2019-05-03T02:43:36.442Z,1014.95
2019-05-03T02:44:35.595Z,1015.00
2019-05-03T02:45:35.176Z,1014.99
2019-05-03T02:46:36.091Z,1015.00
2019-05-03T02:47:35.734Z,1015.01
2019-05-03T02:48:36.372Z,1015.04
2019-05-03T02:49:35.278Z,1015.02
2019-05-03T02:50:36.106Z,1015.01
2019-05-03T02:51:36.033Z,1015.00
2019-05-03T02:52:36.736Z,1014.97
2019-05-03T02:53:36.034Z,1014.98
2019-05-03T02:54:35.280Z,1014.98
2019-05-03T02:55:35.956Z,1014.94
2019-05-03T02:56:35.769Z,1014.96
2019-05-03T02:57:35.230Z,1014.95
2019-05-03T02:58:35.848Z,1014.97
2019-05-03T02:59:34.734Z,1014.99
2019-05-03T03:00:36.144Z,1015.01
2019-05-03T03:01:35.737Z,1015.01
2019-05-03T03:02:36.547Z,1015.01
2019-05-03T03:03:36.382Z,1015.02
2019-05-03T03:04:35.522Z,1015.04
2019-05-03T03:05:35.290Z,1015.02
2019-05-03T03:06:36.641Z,1015.00
2019-05-03T03:07:37.467Z,1014.97
2019-05-03T03:08:36.707Z,1014.94
2019-05-03T03:09:35.981Z,1014.94
2019-05-03T03:10:35.622Z,1014.93
2019-05-03T03:11:35.557Z,1014.91
2019-05-03T03:12:35.609Z,1014.92
2019-05-03T03:13:36.836Z,1014.91
2019-05-03T03:14:36.258Z,1014.88
2019-05-03T03:15:36.241Z,1014.89
2019-05-03T03:16:36.186Z,1014.86
2019-05-03T03:17:36.442Z,1014.89
2019-05-03T03:18:36.385Z,1014.86
2019-05-03T03:19:35.288Z,1014.88
2019-05-03T03:20:35.701Z,1014.85
2019-05-03T03:21:36.032Z,1014.85
2019-05-03T03:22:36.326Z,1014.85
2019-05-03T03:23:35.509Z,1014.80
2019-05-03T03:24:36.205Z,1014.76
2019-05-03T03:25:36.114Z,1014.76
2019-05-03T03:26:41.639Z,1014.74
2019-05-03T03:27:36.115Z,1014.72
2019-05-03T03:28:35.992Z,1014.77
2019-05-03T03:29:35.921Z,1014.76
2019-05-03T03:30:38.039Z,1014.74
2019-05-03T03:31:37.984Z,1014.76
2019-05-03T03:32:38.694Z,1014.72
2019-05-03T03:33:39.714Z,1014.70
2019-05-03T03:34:38.698Z,1014.70
2019-05-03T03:35:38.352Z,1014.72
2019-05-03T03:36:53.303Z,1014.70
2019-05-03T03:37:35.401Z,1014.66
2019-05-03T03:38:35.407Z,1014.61
2019-05-03T03:39:36.238Z,1014.66
2019-05-03T03:40:35.965Z,1014.63
2019-05-03T03:41:35.384Z,1014.56
2019-05-03T03:42:36.036Z,1014.56
2019-05-03T03:43:35.470Z,1014.53
2019-05-03T03:44:36.339Z,1014.48
2019-05-03T03:45:35.922Z,1014.50
2019-05-03T03:46:35.930Z,1014.50
2019-05-03T03:47:35.755Z,1014.46
2019-05-03T03:48:35.453Z,1014.49
2019-05-03T03:49:35.702Z,1014.48
2019-05-03T03:50:35.854Z,1014.50
2019-05-03T03:51:35.217Z,1014.52
2019-05-03T03:52:36.194Z,1014.56
2019-05-03T03:53:35.567Z,1014.54
2019-05-03T03:54:35.678Z,1014.57
2019-05-03T03:55:35.440Z,1014.54
2019-05-03T03:56:40.880Z,1014.52
2019-05-03T03:57:35.737Z,1014.53
2019-05-03T03:58:36.132Z,1014.51
2019-05-03T03:59:36.305Z,1014.50
2019-05-03T04:00:36.296Z,1014.52
2019-05-03T04:01:35.165Z,1014.47
2019-05-03T04:02:35.537Z,1014.46
2019-05-03T04:03:36.145Z,1014.42
2019-05-03T04:04:36.232Z,1014.42
2019-05-03T04:05:35.988Z,1014.37
2019-05-03T04:06:35.800Z,1014.36
2019-05-03T04:07:36.134Z,1014.36
2019-05-03T04:08:36.006Z,1014.31
2019-05-03T04:09:36.363Z,1014.25
2019-05-03T04:10:36.351Z,1014.25
2019-05-03T04:11:35.336Z,1014.24
2019-05-03T04:12:35.424Z,1014.24
2019-05-03T04:13:36.070Z,1014.21
2019-05-03T04:14:36.180Z,1014.21
2019-05-03T04:15:36.938Z,1014.22
2019-05-03T04:16:36.620Z,1014.22
2019-05-03T04:17:36.139Z,1014.19
2019-05-03T04:18:36.168Z,1014.24
2019-05-03T04:19:36.453Z,1014.24
2019-05-03T04:20:36.166Z,1014.21
2019-05-03T04:21:36.005Z,1014.24
2019-05-03T04:22:36.536Z,1014.25
2019-05-03T04:23:36.017Z,1014.25
2019-05-03T04:24:35.590Z,1014.23
2019-05-03T04:25:35.834Z,1014.24
2019-05-03T04:26:35.858Z,1014.22
2019-05-03T04:27:36.444Z,1014.20
2019-05-03T04:28:36.640Z,1014.17
2019-05-03T04:29:35.848Z,1014.10
2019-05-03T04:30:36.368Z,1014.07
2019-05-03T04:31:36.841Z,1014.08
2019-05-03T04:32:36.065Z,1014.00
2019-05-03T04:33:36.007Z,1013.98
2019-05-03T04:34:36.755Z,1013.94
2019-05-03T04:35:36.610Z,1013.94
2019-05-03T04:36:35.924Z,1013.87
2019-05-03T04:37:36.317Z,1013.88
2019-05-03T04:38:35.824Z,1013.86
2019-05-03T04:39:36.454Z,1013.84
2019-05-03T04:40:36.966Z,1013.83
2019-05-03T04:41:35.936Z,1013.76
2019-05-03T04:42:36.029Z,1013.80
2019-05-03T04:43:36.110Z,1013.73
2019-05-03T04:44:36.170Z,1013.67
2019-05-03T04:45:36.649Z,1013.67
2019-05-03T04:46:36.947Z,1013.66
2019-05-03T04:47:35.956Z,1013.62
2019-05-03T04:48:36.709Z,1013.66
2019-05-03T04:49:36.444Z,1013.61
2019-05-03T04:50:36.900Z,1013.57
2019-05-03T04:51:36.564Z,1013.57
2019-05-03T04:52:38.195Z,1013.60
2019-05-03T04:53:36.248Z,1013.61
2019-05-03T04:54:36.077Z,1013.64
2019-05-03T04:55:36.619Z,1013.67
2019-05-03T04:56:36.113Z,1013.67
2019-05-03T04:57:42.209Z,1013.65
2019-05-03T04:58:37.163Z,1013.66
2019-05-03T04:59:36.164Z,1013.62
2019-05-03T05:00:36.292Z,1013.60
2019-05-03T05:01:36.202Z,1013.57
2019-05-03T05:02:36.224Z,1013.56
2019-05-03T05:03:36.523Z,1013.53
2019-05-03T05:04:37.354Z,1013.55
2019-05-03T05:05:36.641Z,1013.50
2019-05-03T05:06:36.501Z,1013.49
2019-05-03T05:07:36.366Z,1013.46
2019-05-03T05:08:36.425Z,1013.39
2019-05-03T05:09:36.350Z,1013.36
2019-05-03T05:10:37.422Z,1013.38
2019-05-03T05:11:36.378Z,1013.35
2019-05-03T05:12:36.416Z,1013.35
2019-05-03T05:13:36.417Z,1013.39
2019-05-03T05:14:36.433Z,1013.39
2019-05-03T05:15:36.445Z,1013.41
2019-05-03T05:16:39.662Z,1013.37
2019-05-03T05:17:36.497Z,1013.38
2019-05-03T05:18:36.497Z,1013.32
2019-05-03T05:19:36.527Z,1013.30
2019-05-03T05:20:36.531Z,1013.23
2019-05-03T05:21:36.552Z,1013.24
2019-05-03T05:22:38.250Z,1013.24
2019-05-03T05:23:37.451Z,1013.22
2019-05-03T05:24:36.911Z,1013.23
2019-05-03T05:25:36.723Z,1013.16
2019-05-03T05:26:36.773Z,1013.19
2019-05-03T05:27:48.686Z,1013.16
2019-05-03T05:28:37.843Z,1013.15
2019-05-03T05:29:36.863Z,1013.14
2019-05-03T05:30:36.710Z,1013.14
2019-05-03T05:31:36.728Z,1013.13
2019-05-03T05:32:36.786Z,1013.08
2019-05-03T05:33:36.767Z,1013.11
2019-05-03T05:34:37.789Z,1013.06
2019-05-03T05:35:36.794Z,1013.01
2019-05-03T05:36:36.815Z,1013.00
2019-05-03T05:37:36.831Z,1012.95
2019-05-03T05:38:37.057Z,1012.91
2019-05-03T05:39:36.911Z,1012.91
2019-05-03T05:40:39.264Z,1012.92
2019-05-03T05:41:36.902Z,1012.90
2019-05-03T05:42:36.917Z,1012.92
2019-05-03T05:43:36.937Z,1012.90
2019-05-03T05:44:36.954Z,1012.87
2019-05-03T05:45:36.970Z,1012.83
2019-05-03T05:46:38.003Z,1012.81
2019-05-03T05:47:37.009Z,1012.76
2019-05-03T05:48:37.223Z,1012.75
2019-05-03T05:49:37.042Z,1012.73
2019-05-03T05:50:37.212Z,1012.73
2019-05-03T05:51:37.076Z,1012.65
2019-05-03T05:52:38.110Z,1012.64
2019-05-03T05:53:37.113Z,1012.58
2019-05-03T05:54:37.131Z,1012.63
2019-05-03T05:55:37.159Z,1012.58
2019-05-03T05:56:37.165Z,1012.61
2019-05-03T05:57:37.186Z,1012.61
2019-05-03T05:58:38.211Z,1012.54
2019-05-03T05:59:37.217Z,1012.56
2019-05-03T06:00:37.236Z,1012.52
2019-05-03T06:01:37.256Z,1012.54
2019-05-03T06:02:37.271Z,1012.55
2019-05-03T06:03:37.287Z,1012.54
2019-05-03T06:04:38.316Z,1012.52
2019-05-03T06:05:37.328Z,1012.49
2019-05-03T06:06:37.339Z,1012.47
2019-05-03T06:07:37.359Z,1012.42
2019-05-03T06:08:37.379Z,1012.43
2019-05-03T06:09:37.394Z,1012.45
2019-05-03T06:10:38.420Z,1012.42
2019-05-03T06:11:37.429Z,1012.37
2019-05-03T06:12:37.450Z,1012.40
2019-05-03T06:13:37.474Z,1012.36
2019-05-03T06:14:37.478Z,1012.32
2019-05-03T06:15:37.497Z,1012.27
2019-05-03T06:16:38.527Z,1012.22
2019-05-03T06:17:37.553Z,1012.22
2019-05-03T06:18:37.738Z,1012.16
2019-05-03T06:19:37.571Z,1012.14
2019-05-03T06:20:37.585Z,1012.09
2019-05-03T06:21:37.610Z,1012.03
2019-05-03T06:22:38.634Z,1012.01
2019-05-03T06:23:37.643Z,1011.96
2019-05-03T06:24:37.655Z,1011.93
2019-05-03T06:25:37.678Z,1011.91
2019-05-03T06:26:37.735Z,1011.87
2019-05-03T06:27:37.750Z,1011.89
2019-05-03T06:28:38.739Z,1011.88
2019-05-03T06:29:37.744Z,1011.86
2019-05-03T06:30:38.472Z,1011.89
2019-05-03T06:31:38.661Z,1011.85
2019-05-03T06:32:37.953Z,1011.87
2019-05-03T06:33:37.911Z,1011.87
2019-05-03T06:34:38.995Z,1011.84
2019-05-03T06:35:37.876Z,1011.81
2019-05-03T06:36:38.104Z,1011.81
2019-05-03T06:37:38.052Z,1011.82
2019-05-03T06:38:37.909Z,1011.77
2019-05-03T06:39:37.920Z,1011.77
2019-05-03T06:40:38.956Z,1011.75
2019-05-03T06:41:37.959Z,1011.76
2019-05-03T06:42:50.944Z,1011.73
2019-05-03T06:43:39.586Z,1011.71
2019-05-03T06:44:38.015Z,1011.69
2019-05-03T06:45:41.082Z,1011.59
2019-05-03T06:46:39.058Z,1011.60
2019-05-03T06:47:40.541Z,1011.56
2019-05-03T06:48:38.081Z,1011.55
2019-05-03T06:49:39.361Z,1011.49
2019-05-03T06:50:38.123Z,1011.48
2019-05-03T06:51:39.977Z,1011.46
2019-05-03T06:52:39.169Z,1011.45
2019-05-03T06:53:41.818Z,1011.39
2019-05-03T06:54:38.184Z,1011.44
2019-05-03T06:55:39.934Z,1011.44
2019-05-03T06:56:38.219Z,1011.43
2019-05-03T06:57:40.094Z,1011.42
2019-05-03T06:58:39.269Z,1011.45
2019-05-03T06:59:38.277Z,1011.49
2019-05-03T07:00:38.299Z,1011.50
2019-05-03T07:01:38.312Z,1011.51
2019-05-03T07:02:38.332Z,1011.49
2019-05-03T07:03:38.347Z,1011.46
2019-05-03T07:04:39.396Z,1011.45
2019-05-03T07:05:38.383Z,1011.41
2019-05-03T07:06:40.566Z,1011.40
2019-05-03T07:07:38.420Z,1011.39
2019-05-03T07:08:38.438Z,1011.35
2019-05-03T07:09:38.457Z,1011.37
2019-05-03T07:10:39.603Z,1011.35
2019-05-03T07:11:38.490Z,1011.37
2019-05-03T07:12:38.506Z,1011.33
2019-05-03T07:13:38.564Z,1011.35
2019-05-03T07:14:38.549Z,1011.36
2019-05-03T07:15:38.563Z,1011.33
2019-05-03T07:16:39.600Z,1011.29
2019-05-03T07:17:38.601Z,1011.27
2019-05-03T07:18:38.670Z,1011.26
2019-05-03T07:19:38.635Z,1011.22
2019-05-03T07:20:38.650Z,1011.20
2019-05-03T07:21:38.671Z,1011.21
2019-05-03T07:22:39.696Z,1011.19
2019-05-03T07:23:38.706Z,1011.23
2019-05-03T07:24:40.808Z,1011.17
2019-05-03T07:25:38.739Z,1011.22
2019-05-03T07:26:38.764Z,1011.18
2019-05-03T07:27:38.780Z,1011.15
2019-05-03T07:28:46.897Z,1011.15
2019-05-03T07:29:38.812Z,1011.15
2019-05-03T07:30:38.829Z,1011.12
2019-05-03T07:31:38.847Z,1011.08
2019-05-03T07:32:38.869Z,1011.08
2019-05-03T07:33:38.887Z,1011.00
2019-05-03T07:34:39.915Z,1010.99
2019-05-03T07:35:38.918Z,1010.94
2019-05-03T07:36:38.936Z,1010.94
2019-05-03T07:37:38.956Z,1010.93
2019-05-03T07:38:38.973Z,1010.92
2019-05-03T07:39:38.993Z,1010.94
2019-05-03T07:40:40.019Z,1010.95
2019-05-03T07:41:39.025Z,1010.95
2019-05-03T07:42:39.049Z,1010.92
2019-05-03T07:43:39.980Z,1010.91
2019-05-03T07:44:39.083Z,1010.91
2019-05-03T07:45:39.152Z,1010.92
2019-05-03T07:46:40.211Z,1010.92
2019-05-03T07:47:39.165Z,1010.89
2019-05-03T07:48:39.167Z,1010.88
2019-05-03T07:49:39.172Z,1010.89
2019-05-03T07:50:39.186Z,1010.88
2019-05-03T07:51:39.204Z,1010.87
2019-05-03T07:52:40.235Z,1010.85
2019-05-03T07:53:39.241Z,1010.82
2019-05-03T07:54:39.259Z,1010.82
2019-05-03T07:55:39.277Z,1010.79
2019-05-03T07:56:39.334Z,1010.78
2019-05-03T07:57:39.319Z,1010.76
2019-05-03T07:58:40.351Z,1010.74
2019-05-03T07:59:39.348Z,1010.72
2019-05-03T08:00:39.367Z,1010.76
2019-05-03T08:01:39.386Z,1010.70
2019-05-03T08:02:39.401Z,1010.69
2019-05-03T08:03:39.422Z,1010.62
2019-05-03T08:04:40.450Z,1010.58
2019-05-03T08:05:39.459Z,1010.56
2019-05-03T08:06:39.482Z,1010.52
2019-05-03T08:07:39.494Z,1010.55
2019-05-03T08:08:39.513Z,1010.54
2019-05-03T08:09:39.557Z,1010.56
2019-05-03T08:10:40.555Z,1010.52
2019-05-03T08:11:39.568Z,1010.54
2019-05-03T08:12:39.581Z,1010.52
2019-05-03T08:13:39.602Z,1010.51
2019-05-03T08:14:39.619Z,1010.46
2019-05-03T08:15:39.639Z,1010.46
2019-05-03T08:16:40.673Z,1010.42
2019-05-03T08:17:39.670Z,1010.38
2019-05-03T08:18:39.690Z,1010.39
2019-05-03T08:19:39.707Z,1010.38
2019-05-03T08:20:39.725Z,1010.39
2019-05-03T08:21:39.774Z,1010.42
2019-05-03T08:22:40.772Z,1010.44
2019-05-03T08:23:39.790Z,1010.41
2019-05-03T08:24:39.803Z,1010.44
2019-05-03T08:25:39.823Z,1010.43
2019-05-03T08:26:39.840Z,1010.41
2019-05-03T08:27:40.129Z,1010.39
2019-05-03T08:28:40.929Z,1010.37
2019-05-03T08:29:39.904Z,1010.37
2019-05-03T08:30:39.903Z,1010.37
2019-05-03T08:31:39.920Z,1010.35
2019-05-03T08:32:39.967Z,1010.28
2019-05-03T08:33:39.960Z,1010.30
2019-05-03T08:34:40.990Z,1010.33
2019-05-03T08:35:39.993Z,1010.34
2019-05-03T08:36:40.009Z,1010.33
2019-05-03T08:37:40.036Z,1010.35
2019-05-03T08:38:40.046Z,1010.36
2019-05-03T08:39:40.065Z,1010.37
2019-05-03T08:40:41.110Z,1010.38
2019-05-03T08:41:40.100Z,1010.34
2019-05-03T08:42:40.117Z,1010.31
2019-05-03T08:43:40.136Z,1010.35
2019-05-03T08:44:40.156Z,1010.34
2019-05-03T08:45:40.171Z,1010.32
2019-05-03T08:46:41.200Z,1010.31
2019-05-03T08:47:40.217Z,1010.33
2019-05-03T08:48:40.227Z,1010.32
2019-05-03T08:49:40.247Z,1010.35
2019-05-03T08:50:40.382Z,1010.33
2019-05-03T08:51:40.278Z,1010.32
2019-05-03T08:52:41.309Z,1010.33
2019-05-03T08:53:40.314Z,1010.33
2019-05-03T08:54:40.337Z,1010.31
2019-05-03T08:55:40.353Z,1010.29
2019-05-03T08:56:40.386Z,1010.28
2019-05-03T08:57:40.393Z,1010.27
2019-05-03T08:58:41.424Z,1010.28
2019-05-03T08:59:40.423Z,1010.26
2019-05-03T09:00:40.442Z,1010.27
2019-05-03T09:01:40.463Z,1010.25
2019-05-03T09:02:40.479Z,1010.25
2019-05-03T09:03:40.493Z,1010.25
2019-05-03T09:04:43.243Z,1010.23
2019-05-03T09:05:40.540Z,1010.21
2019-05-03T09:06:40.546Z,1010.20
2019-05-03T09:07:40.566Z,1010.18
2019-05-03T09:08:40.587Z,1010.15
2019-05-03T09:09:40.602Z,1010.19
2019-05-03T09:10:41.631Z,1010.19
2019-05-03T09:11:40.640Z,1010.20
2019-05-03T09:12:40.656Z,1010.14
2019-05-03T09:13:40.672Z,1010.16
2019-05-03T09:14:45.458Z,1010.13
2019-05-03T09:15:40.709Z,1010.13
2019-05-03T09:16:41.739Z,1010.10
2019-05-03T09:17:40.833Z,1010.12
2019-05-03T09:18:40.771Z,1010.07
2019-05-03T09:19:41.499Z,1010.06
2019-05-03T09:20:40.803Z,1010.06
2019-05-03T09:21:41.039Z,1010.04
2019-05-03T09:22:42.740Z,1010.03
2019-05-03T09:23:41.002Z,1010.01
2019-05-03T09:24:40.870Z,1009.95
2019-05-03T09:25:40.890Z,1009.91
2019-05-03T09:26:40.909Z,1009.94
2019-05-03T09:27:40.926Z,1009.92
2019-05-03T09:28:41.956Z,1009.88
2019-05-03T09:29:43.530Z,1009.90
2019-05-03T09:30:40.981Z,1009.90
2019-05-03T09:31:40.997Z,1009.91
2019-05-03T09:32:41.015Z,1009.90
2019-05-03T09:33:41.038Z,1009.89
2019-05-03T09:34:42.062Z,1009.91
2019-05-03T09:35:41.076Z,1009.94
2019-05-03T09:36:41.089Z,1009.95
2019-05-03T09:37:41.108Z,1009.96
2019-05-03T09:38:41.123Z,1009.95
2019-05-03T09:39:41.140Z,1009.96
2019-05-03T09:40:42.171Z,1009.96
2019-05-03T09:41:41.180Z,1010.00
2019-05-03T09:42:41.196Z,1009.98
2019-05-03T09:43:41.212Z,1009.98
2019-05-03T09:44:41.230Z,1010.04
2019-05-03T09:45:41.249Z,1009.98
2019-05-03T09:46:42.280Z,1010.02
2019-05-03T09:47:41.283Z,1010.04
2019-05-03T09:48:41.301Z,1009.99
2019-05-03T09:49:41.320Z,1009.98
2019-05-03T09:50:41.337Z,1009.98
2019-05-03T09:51:41.356Z,1010.00
2019-05-03T09:52:42.388Z,1009.95
2019-05-03T09:53:41.397Z,1009.97
2019-05-03T09:54:41.410Z,1009.97
2019-05-03T09:55:41.436Z,1009.94
2019-05-03T09:56:52.844Z,1009.96
2019-05-03T09:57:41.480Z,1010.00
2019-05-03T09:58:42.496Z,1010.03
2019-05-03T09:59:54.275Z,1010.03
2019-05-03T10:00:41.520Z,1010.02
2019-05-03T10:01:41.538Z,1010.03
2019-05-03T10:02:41.555Z,1010.01
2019-05-03T10:03:41.571Z,1010.04
2019-05-03T10:04:44.546Z,1010.00
2019-05-03T10:05:41.607Z,1010.00
2019-05-03T10:06:41.628Z,1010.02
2019-05-03T10:07:41.646Z,1009.99
2019-05-03T10:08:41.663Z,1010.02
2019-05-03T10:09:41.679Z,1009.98
2019-05-03T10:10:42.709Z,1010.01
2019-05-03T10:11:41.734Z,1010.03
2019-05-03T10:12:41.737Z,1010.03
2019-05-03T10:13:42.146Z,1010.00
2019-05-03T10:14:41.771Z,1010.01
2019-05-03T10:15:41.788Z,1009.97
2019-05-03T10:16:44.847Z,1009.95
2019-05-03T10:17:41.825Z,1009.99
2019-05-03T10:18:41.857Z,1009.97
2019-05-03T10:19:41.864Z,1009.95
2019-05-03T10:20:41.876Z,1009.99
2019-05-03T10:21:41.898Z,1009.97
2019-05-03T10:22:42.924Z,1009.91
2019-05-03T10:23:41.931Z,1009.94
2019-05-03T10:24:42.016Z,1009.96
2019-05-03T10:25:42.117Z,1009.93
2019-05-03T10:26:41.983Z,1009.96
2019-05-03T10:27:42.002Z,1009.95
2019-05-03T10:28:43.033Z,1009.97
2019-05-03T10:29:42.041Z,1009.97
2019-05-03T10:30:44.947Z,1009.98
2019-05-03T10:31:42.073Z,1009.96
2019-05-03T10:32:42.092Z,1009.93
2019-05-03T10:33:42.112Z,1009.96
2019-05-03T10:34:43.153Z,1009.92
2019-05-03T10:35:42.152Z,1009.94
2019-05-03T10:36:42.163Z,1009.96
2019-05-03T10:37:42.181Z,1009.93
2019-05-03T10:38:42.208Z,1009.96
2019-05-03T10:39:42.253Z,1009.96
2019-05-03T10:40:45.260Z,1009.98
2019-05-03T10:41:42.304Z,1010.01
2019-05-03T10:42:44.441Z,1010.00
2019-05-03T10:43:42.298Z,1010.05
2019-05-03T10:44:44.786Z,1010.00
2019-05-03T10:45:42.333Z,1010.03
2019-05-03T10:46:45.185Z,1010.05
2019-05-03T10:47:42.722Z,1010.02
2019-05-03T10:48:44.426Z,1010.05
2019-05-03T10:49:45.679Z,1010.10
2019-05-03T10:50:42.726Z,1010.10
2019-05-03T10:51:42.432Z,1010.11
2019-05-03T10:52:44.691Z,1010.16
2019-05-03T10:53:42.468Z,1010.17
2019-05-03T10:54:42.823Z,1010.19
2019-05-03T10:55:42.509Z,1010.16
2019-05-03T10:56:42.556Z,1010.20
2019-05-03T10:57:44.822Z,1010.20
2019-05-03T10:58:45.283Z,1010.25
2019-05-03T10:59:44.789Z,1010.29
2019-05-03T11:00:50.184Z,1010.31
2019-05-03T11:01:42.609Z,1010.40
2019-05-03T11:02:42.628Z,1010.41
2019-05-03T11:03:42.649Z,1010.42
2019-05-03T11:04:46.161Z,1010.42
2019-05-03T11:05:42.683Z,1010.40
2019-05-03T11:06:42.700Z,1010.42
2019-05-03T11:07:42.716Z,1010.38
2019-05-03T11:08:42.742Z,1010.38
2019-05-03T11:09:49.627Z,1010.35
2019-05-03T11:10:44.305Z,1010.34
2019-05-03T11:11:45.221Z,1010.32
2019-05-03T11:12:42.808Z,1010.29
2019-05-03T11:13:42.829Z,1010.29
2019-05-03T11:14:42.848Z,1010.30
2019-05-03T11:15:44.427Z,1010.29
2019-05-03T11:16:46.084Z,1010.34
2019-05-03T11:17:42.900Z,1010.36
2019-05-03T11:18:42.919Z,1010.37
2019-05-03T11:19:42.934Z,1010.35
2019-05-03T11:20:45.126Z,1010.38
2019-05-03T11:21:45.277Z,1010.42
2019-05-03T11:22:45.228Z,1010.34
2019-05-03T11:23:44.991Z,1010.39
2019-05-03T11:24:45.199Z,1010.40
2019-05-03T11:25:45.039Z,1010.37
2019-05-03T11:26:45.241Z,1010.41
2019-05-03T11:27:44.707Z,1010.39
2019-05-03T11:28:44.852Z,1010.40
2019-05-03T11:29:45.059Z,1010.41
2019-05-03T11:30:53.048Z,1010.47
2019-05-03T11:31:44.526Z,1010.50
2019-05-03T11:32:44.753Z,1010.58
2019-05-03T11:33:43.190Z,1010.62
2019-05-03T11:34:44.927Z,1010.63
2019-05-03T11:35:44.680Z,1010.66
2019-05-03T11:36:45.374Z,1010.65
2019-05-03T11:37:45.259Z,1010.65
2019-05-03T11:38:45.387Z,1010.64
2019-05-03T11:39:45.133Z,1010.63
2019-05-03T11:40:45.521Z,1010.63
2019-05-03T11:41:45.067Z,1010.63
2019-05-03T11:42:44.814Z,1010.65
2019-05-03T11:43:44.388Z,1010.65
2019-05-03T11:44:44.671Z,1010.66
2019-05-03T11:45:44.880Z,1010.67
2019-05-03T11:46:44.548Z,1010.69
2019-05-03T11:47:45.593Z,1010.68
2019-05-03T11:48:45.367Z,1010.70
2019-05-03T11:49:45.424Z,1010.73
2019-05-03T11:50:45.368Z,1010.76
2019-05-03T11:51:44.626Z,1010.78
2019-05-03T11:52:47.259Z,1010.79
2019-05-03T11:53:45.051Z,1010.80
2019-05-03T11:54:45.329Z,1010.83
2019-05-03T11:55:46.288Z,1010.83
2019-05-03T11:56:44.930Z,1010.85
2019-05-03T11:57:44.955Z,1010.83
2019-05-03T11:58:45.739Z,1010.85
2019-05-03T11:59:45.295Z,1010.90
2019-05-03T12:00:45.081Z,1010.91
2019-05-03T12:01:44.912Z,1010.97
2019-05-03T12:02:44.793Z,1011.02
2019-05-03T12:03:45.176Z,1011.06
2019-05-03T12:04:45.844Z,1011.09
2019-05-03T12:05:43.759Z,1011.15